Time;durP1;ratioP1;P1;durP2;ratioP2;P2;SDS_P1;SDS_P2;PMS_P1;PMS_P2;Temp;Humidity;BMP_temperature;BMP_pressure;BME280_temperature;BME280_humidity;BME280_pressure;Samples;Min_cycle;Max_cycle;Signal;HPM_P1;HPM_P2
2023/12/02 00:03:16;;;;;;;2.67;1.45;;;;;;;-1.53;55.20;99032.34;10440910;28;20442;-67
2023/12/02 00:08:18;;;;;;;4.88;2.03;;;;;;;-1.56;54.93;99030.69;10440321;28;20504;-66
2023/12/02 00:13:20;;;;;;;4.25;2.13;;;;;;;-1.51;55.51;99040.84;10439751;28;20056;-66
2023/12/02 00:18:22;;;;;;;4.72;2.40;;;;;;;-1.52;56.21;99036.59;10440101;28;20057;-66
2023/12/02 00:23:24;;;;;;;4.18;1.88;;;;;;;-1.35;55.55;99034.44;10439691;28;20048;-67
2023/12/02 00:28:26;;;;;;;3.47;2.00;;;;;;;-1.55;55.43;99031.56;10421932;28;20418;-67
2023/12/02 00:33:29;;;;;;;2.28;1.48;;;;;;;-1.63;55.59;99038.56;10439555;28;20511;-67
2023/12/02 00:38:32;;;;;;;3.45;1.65;;;;;;;-1.75;55.70;99032.03;10418878;28;20164;-66
2023/12/02 00:43:33;;;;;;;7.10;2.28;;;;;;;-1.92;55.87;99029.06;10439182;28;20049;-66
2023/12/02 00:48:35;;;;;;;4.20;2.25;;;;;;;-2.02;56.42;99022.44;10438857;28;20056;-67
2023/12/02 00:53:37;;;;;;;3.33;1.92;;;;;;;-2.15;56.08;99031.28;10438081;28;20041;-67
2023/12/02 00:58:39;;;;;;;4.50;1.95;;;;;;;-2.21;55.94;99046.81;10414023;28;20044;-66
2023/12/02 01:03:42;;;;;;;3.70;1.90;;;;;;;-2.38;55.95;99046.31;10437868;28;20167;-66
2023/12/02 01:08:44;;;;;;;3.55;1.67;;;;;;;-2.28;56.15;99046.09;10438733;28;20166;-66
2023/12/02 01:13:46;;;;;;;4.53;2.28;;;;;;;-2.23;55.65;99054.53;10437621;28;21041;-66
2023/12/02 01:18:48;;;;;;;3.92;2.05;;;;;;;-2.15;55.59;99055.19;10437036;28;20088;-66
2023/12/02 01:23:50;;;;;;;4.07;1.85;;;;;;;-2.31;56.11;99058.97;10438093;28;20138;-66
2023/12/02 01:28:52;;;;;;;3.40;1.80;;;;;;;-2.16;55.82;99078.25;10437289;28;20044;-66
2023/12/02 01:33:54;;;;;;;4.65;2.22;;;;;;;-2.15;55.90;99074.84;10436814;28;20134;-66
2023/12/02 01:38:56;;;;;;;5.55;2.33;;;;;;;-2.19;55.76;99084.31;10436909;28;20053;-67
2023/12/02 01:43:58;;;;;;;5.82;2.47;;;;;;;-2.17;56.45;99082.56;10436427;28;20500;-67
2023/12/02 01:49:00;;;;;;;4.05;1.90;;;;;;;-2.13;55.93;99088.47;10436318;28;20513;-67
2023/12/02 01:54:03;;;;;;;5.10;2.20;;;;;;;-2.16;56.11;99089.34;10436165;28;20040;-66
2023/12/02 01:59:05;;;;;;;5.20;2.33;;;;;;;-2.27;56.18;99098.16;10434785;28;20044;-66
2023/12/02 02:04:07;;;;;;;3.35;1.65;;;;;;;-2.34;56.36;99097.44;10433070;28;20041;-66
2023/12/02 02:09:09;;;;;;;4.25;2.00;;;;;;;-2.25;56.11;99099.81;10435850;28;20064;-67
2023/12/02 02:14:11;;;;;;;4.30;2.05;;;;;;;-2.05;56.02;99102.78;10435578;28;20072;-66
2023/12/02 02:19:17;;;;;;;4.75;1.83;;;;;;;-1.87;56.17;99110.91;10435277;28;20144;-66
2023/12/02 02:24:19;;;;;;;4.00;2.00;;;;;;;-1.71;55.76;99107.97;10435091;28;20048;-66
2023/12/02 02:29:22;;;;;;;3.08;1.80;;;;;;;-1.68;55.71;99096.81;10435357;28;20053;-67
2023/12/02 02:34:25;;;;;;;3.63;1.95;;;;;;;-1.70;55.89;99101.13;10417340;28;20080;-66
2023/12/02 02:39:27;;;;;;;3.60;1.80;;;;;;;-1.80;56.19;99103.06;10434686;28;20060;-67
2023/12/02 02:44:29;;;;;;;4.28;2.03;;;;;;;-1.98;55.67;99099.19;10434417;28;20556;-66
2023/12/02 02:49:31;;;;;;;2.72;1.42;;;;;;;-1.95;56.30;99108.53;10434131;28;20140;-66
2023/12/02 02:54:33;;;;;;;3.55;1.70;;;;;;;-2.04;55.70;99104.47;10434488;28;20518;-66
2023/12/02 02:59:35;;;;;;;3.83;1.75;;;;;;;-1.92;56.01;99102.50;10416539;28;20080;-66
2023/12/02 03:04:37;;;;;;;3.10;1.80;;;;;;;-1.85;56.35;99099.75;10415807;28;20056;-66
2023/12/02 03:09:40;;;;;;;2.60;1.67;;;;;;;-1.76;55.86;99106.41;10433886;28;20053;-66
2023/12/02 03:14:42;;;;;;;3.33;1.58;;;;;;;-1.69;56.22;99106.22;10431670;28;20397;-67
2023/12/02 03:19:44;;;;;;;3.88;1.70;;;;;;;-1.72;55.53;99111.44;10433175;28;20057;-67
2023/12/02 03:24:46;;;;;;;2.78;1.60;;;;;;;-1.67;56.01;99107.00;10433746;28;20045;-66
2023/12/02 03:29:48;;;;;;;2.80;1.50;;;;;;;-1.62;56.00;99099.22;10415592;28;20143;-66
2023/12/02 03:34:50;;;;;;;2.75;1.52;;;;;;;-1.60;55.83;99092.34;10432896;28;20051;-66
2023/12/02 03:39:52;;;;;;;2.55;1.58;;;;;;;-1.66;55.96;99097.59;10448035;28;20053;-66
2023/12/02 03:44:55;;;;;;;3.50;1.92;;;;;;;-1.50;55.70;99096.34;10432742;28;20045;-66
2023/12/02 03:49:57;;;;;;;2.53;1.40;;;;;;;-1.66;55.71;99113.84;10432798;28;20052;-67
2023/12/02 03:54:59;;;;;;;3.45;1.98;;;;;;;-1.76;56.10;99114.09;10433043;28;20041;-67
2023/12/02 04:00:10;;;;;;;2.75;1.30;;;;;;;-1.73;55.87;99119.13;10432653;28;20125;-66
2023/12/02 04:05:13;;;;;;;3.58;1.88;;;;;;;-1.66;55.62;99124.09;10433838;28;20400;-67
2023/12/02 04:10:15;;;;;;;2.13;1.35;;;;;;;-1.48;55.91;99136.47;10431917;28;20060;-67
2023/12/02 04:15:17;;;;;;;2.22;1.30;;;;;;;-1.35;55.49;99150.66;10432492;28;20052;-66
2023/12/02 04:20:21;;;;;;;2.95;1.73;;;;;;;-1.34;55.74;99159.22;10411022;28;20059;-67
2023/12/02 04:25:24;;;;;;;3.28;1.70;;;;;;;-1.35;55.85;99172.94;10414353;28;20068;-67
2023/12/02 04:30:26;;;;;;;2.67;1.35;;;;;;;-1.33;55.92;99177.13;10438697;28;20877;-67
2023/12/02 04:35:28;;;;;;;3.42;1.52;;;;;;;-1.35;55.74;99180.63;10439166;28;20136;-66
2023/12/02 04:40:33;;;;;;;3.55;1.60;;;;;;;-1.27;55.77;99173.59;10437565;28;20052;-67
2023/12/02 04:45:35;;;;;;;3.45;1.50;;;;;;;-1.31;55.56;99177.09;10420529;28;20492;-67
2023/12/02 04:50:37;;;;;;;3.30;1.60;;;;;;;-1.27;55.62;99176.97;10437677;28;20099;-67
2023/12/02 04:55:39;;;;;;;2.85;1.60;;;;;;;-1.31;55.41;99179.66;10419435;28;20049;-67
2023/12/02 05:00:42;;;;;;;3.60;1.70;;;;;;;-1.38;55.34;99178.97;10438320;28;20088;-66
2023/12/02 05:05:44;;;;;;;2.65;1.40;;;;;;;-1.35;55.40;99193.44;10438404;28;20049;-66
2023/12/02 05:10:46;;;;;;;3.47;1.65;;;;;;;-1.36;55.43;99189.19;10438026;28;20044;-66
2023/12/02 05:15:48;;;;;;;3.25;1.58;;;;;;;-1.46;55.23;99195.41;10437725;28;20083;-66
2023/12/02 05:20:50;;;;;;;3.47;1.85;;;;;;;-1.47;55.40;99198.88;10438213;28;20457;-66
2023/12/02 05:25:52;;;;;;;2.35;1.65;;;;;;;-1.44;55.50;99203.91;10420014;28;20533;-66
2023/12/02 05:30:54;;;;;;;3.15;1.88;;;;;;;-1.54;55.65;99210.13;10438137;28;20273;-66
2023/12/02 05:35:56;;;;;;;3.33;1.83;;;;;;;-1.49;55.12;99221.97;10437429;28;20051;-66
2023/12/02 05:40:58;;;;;;;2.63;1.52;;;;;;;-1.47;55.45;99229.63;10436265;28;20443;-66
2023/12/02 05:46:00;;;;;;;2.95;1.77;;;;;;;-1.66;55.41;99228.34;10451815;28;20123;-66
2023/12/02 05:51:03;;;;;;;3.00;1.63;;;;;;;-1.62;55.41;99235.09;10436849;28;20381;-66
2023/12/02 05:56:06;;;;;;;3.72;1.88;;;;;;;-1.73;55.67;99239.59;10418830;28;20056;-66
2023/12/02 06:01:08;;;;;;;2.72;1.58;;;;;;;-1.71;55.84;99248.94;10435796;28;20148;-67
2023/12/02 06:06:11;;;;;;;3.63;1.60;;;;;;;-1.69;55.72;99254.03;10433871;28;20068;-67
2023/12/02 06:11:13;;;;;;;2.30;1.50;;;;;;;-1.66;55.54;99259.09;10435322;28;20075;-66
2023/12/02 06:16:15;;;;;;;4.20;1.98;;;;;;;-1.76;55.19;99258.47;10425962;28;20036;-67
2023/12/02 06:21:17;;;;;;;2.47;1.50;;;;;;;-1.78;55.85;99267.91;10431124;28;20049;-66
2023/12/02 06:26:21;;;;;;;3.88;2.08;;;;;;;-1.81;55.62;99282.47;10432603;28;20087;-67
2023/12/02 06:31:23;;;;;;;3.88;2.00;;;;;;;-1.98;54.99;99283.66;10411903;28;20493;-67
2023/12/02 06:36:25;;;;;;;2.17;1.40;;;;;;;-2.07;55.57;99304.34;10431024;28;20043;-67
2023/12/02 06:41:27;;;;;;;4.15;2.08;;;;;;;-1.92;55.62;99313.47;10430142;28;20436;-67
2023/12/02 06:46:29;;;;;;;3.70;1.73;;;;;;;-1.99;55.25;99322.13;10432163;28;20489;-67
2023/12/02 06:51:31;;;;;;;2.20;1.48;;;;;;;-2.09;55.35;99318.91;10431100;28;20072;-67
2023/12/02 06:56:33;;;;;;;3.20;1.70;;;;;;;-2.07;55.16;99332.53;10425650;28;20051;-67
2023/12/02 07:01:35;;;;;;;3.65;1.83;;;;;;;-2.06;55.04;99330.78;10410596;28;20179;-67
2023/12/02 07:06:40;;;;;;;4.18;1.92;;;;;;;-1.91;55.33;99333.09;10430542;28;20049;-67
2023/12/02 07:11:42;;;;;;;3.30;1.50;;;;;;;-1.98;54.95;99350.28;10426178;28;20040;-67
2023/12/02 07:16:45;;;;;;;2.65;1.30;;;;;;;-2.01;54.39;99358.03;10428720;28;20045;-67
2023/12/02 07:21:47;;;;;;;3.60;1.50;;;;;;;-2.06;54.30;99364.94;10412629;28;20507;-67
2023/12/02 07:26:49;;;;;;;3.03;1.65;;;;;;;-2.01;54.85;99373.41;10430304;28;20045;-68
2023/12/02 07:31:51;;;;;;;3.28;2.00;;;;;;;-2.02;54.68;99374.28;10429075;28;20778;-67
2023/12/02 07:36:53;;;;;;;3.40;1.83;;;;;;;-1.87;54.56;99379.97;10429180;28;20045;-67
2023/12/02 07:41:55;;;;;;;3.10;1.98;;;;;;;-1.90;54.24;99372.38;10431525;28;20048;-67
2023/12/02 07:46:57;;;;;;;5.63;1.80;;;;;;;-1.83;54.43;99389.31;10432776;28;20043;-67
2023/12/02 07:51:59;;;;;;;4.15;1.90;;;;;;;-1.86;53.88;99397.06;10430995;28;20045;-67
2023/12/02 07:57:02;;;;;;;3.10;1.67;;;;;;;-1.85;54.46;99411.56;10413620;28;20153;-67
2023/12/02 08:02:05;;;;;;;2.80;1.75;;;;;;;-1.66;53.75;99428.31;10416209;28;20131;-67
2023/12/02 08:07:07;;;;;;;5.85;1.77;;;;;;;-1.66;54.22;99431.72;10440356;28;20056;-66
2023/12/02 08:12:10;;;;;;;4.90;2.08;;;;;;;-1.55;53.83;99434.91;10439553;28;20037;-66
2023/12/02 08:17:12;;;;;;;2.70;1.63;;;;;;;-1.46;53.66;99436.47;10440088;28;20166;-66
2023/12/02 08:22:14;;;;;;;3.25;1.70;;;;;;;-1.41;53.65;99439.78;10439850;28;20048;-66
2023/12/02 08:27:17;;;;;;;3.85;2.00;;;;;;;-1.52;52.91;99444.25;10439328;28;20045;-67
2023/12/02 08:32:19;;;;;;;3.63;1.70;;;;;;;-1.36;53.43;99443.09;10421947;28;20045;-67
2023/12/02 08:37:21;;;;;;;3.22;1.73;;;;;;;-1.31;53.68;99428.47;10439578;28;20056;-66
2023/12/02 08:42:23;;;;;;;3.88;1.52;;;;;;;-1.26;53.52;99435.19;10421505;28;20139;-67
2023/12/02 08:47:25;;;;;;;5.03;2.13;;;;;;;-1.22;53.20;99447.09;10439771;28;20515;-66
2023/12/02 08:52:27;;;;;;;3.33;1.88;;;;;;;-1.19;53.19;99456.44;10434939;28;20428;-66
2023/12/02 08:57:29;;;;;;;5.32;2.00;;;;;;;-1.08;52.90;99454.50;10437655;28;20040;-67
2023/12/02 09:02:31;;;;;;;4.57;2.35;;;;;;;-1.16;52.05;99457.22;10438911;28;20095;-66
2023/12/02 09:07:33;;;;;;;4.57;2.13;;;;;;;-1.11;52.52;99479.38;10438696;28;20138;-66
2023/12/02 09:12:35;;;;;;;3.83;1.67;;;;;;;-1.28;52.74;99487.41;10438200;28;20064;-67
2023/12/02 09:17:49;;;;;;;4.35;2.20;;;;;;;-1.27;52.16;99476.28;10437655;28;20068;-66
2023/12/02 09:22:52;;;;;;;6.47;2.20;;;;;;;-1.08;52.00;99479.31;10453263;28;20052;-66
2023/12/02 09:28:06;;;;;;;3.42;2.08;;;;;;;-0.84;51.94;99491.66;10437813;28;20123;-67
2023/12/02 09:33:08;;;;;;;4.05;2.15;;;;;;;-0.96;51.89;99500.44;10429387;28;20052;-67
2023/12/02 09:38:13;;;;;;;5.47;2.42;;;;;;;-0.90;51.53;99505.44;10432925;28;20135;-68
2023/12/02 09:43:23;;;;;;;4.05;2.00;;;;;;;-1.01;51.42;99507.41;10433194;28;20582;-66
2023/12/02 09:48:28;;;;;;;4.88;2.17;;;;;;;-1.02;51.67;99504.88;10433116;28;20748;-67
2023/12/02 09:53:46;;;;;;;3.88;1.85;;;;;;;-1.03;52.05;99501.44;10433712;28;20103;-66
2023/12/02 09:58:54;;;;;;;4.60;2.10;;;;;;;-0.88;52.36;99503.69;10431996;28;20049;-67
2023/12/02 10:03:56;;;;;;;4.18;2.30;;;;;;;-1.18;52.56;99496.59;10432683;28;20052;-67
2023/12/02 10:09:29;;;;;;;4.75;2.17;;;;;;;-1.03;52.66;99503.16;10432466;28;20114;-66
2023/12/02 10:14:33;;;;;;;4.43;2.10;;;;;;;-1.03;52.94;99514.28;10426586;28;20712;-66
2023/12/02 10:19:50;;;;;;;4.38;2.35;;;;;;;-0.94;52.64;99519.22;10427348;28;20536;-67
2023/12/02 10:25:24;;;;;;;4.05;1.92;;;;;;;-0.99;51.59;99521.03;10429228;28;20051;-67
2023/12/02 10:30:38;;;;;;;5.50;2.35;;;;;;;-0.80;52.53;99512.06;10426211;28;20048;-67
2023/12/02 10:35:46;;;;;;;5.47;2.30;;;;;;;-0.75;51.63;99514.56;10429109;28;20132;-67
2023/12/02 10:41:02;;;;;;;4.78;2.53;;;;;;;-0.78;51.80;99520.59;10430675;28;20055;-67
2023/12/02 10:46:07;;;;;;;4.43;2.08;;;;;;;-0.66;52.01;99512.66;10430859;28;20041;-67
2023/12/02 10:51:10;;;;;;;4.95;2.88;;;;;;;-0.56;51.47;99518.44;10424172;28;20056;-67
2023/12/02 10:56:21;;;;;;;3.90;2.15;;;;;;;-0.48;51.38;99508.84;10430968;28;20049;-68
2023/12/02 11:01:37;;;;;;;6.00;2.60;;;;;;;-0.52;51.20;99508.06;10429260;28;20056;-67
2023/12/02 11:06:44;;;;;;;6.38;2.92;;;;;;;-0.55;51.23;99513.25;10431827;28;20053;-68
2023/12/02 11:12:07;;;;;;;4.15;2.25;;;;;;;-0.59;51.21;99506.50;10412092;28;20049;-67
2023/12/02 11:17:24;;;;;;;5.35;2.63;;;;;;;-0.60;51.11;99517.66;10430388;28;20144;-64
2023/12/02 11:22:26;;;;;;;5.30;2.55;;;;;;;-0.63;51.47;99522.84;10430318;28;20523;-68
2023/12/02 11:27:54;;;;;;;5.40;2.50;;;;;;;-0.64;50.83;99526.31;10424399;28;20071;-68
2023/12/02 11:33:18;;;;;;;4.15;2.63;;;;;;;-0.65;50.76;99526.31;10427696;28;20677;-68
2023/12/02 11:38:22;;;;;;;5.93;2.40;;;;;;;-0.69;51.04;99534.97;10434630;28;20149;-68
2023/12/02 11:44:02;;;;;;;4.15;2.25;;;;;;;-0.61;51.07;99543.34;10439563;28;20135;-67
2023/12/02 11:49:31;;;;;;;5.97;3.00;;;;;;;-0.58;50.15;99544.16;10437303;28;20048;-68
2023/12/02 11:54:52;;;;;;;4.43;2.42;;;;;;;-0.40;51.68;99559.16;10434739;28;20033;-68
2023/12/02 11:59:54;;;;;;;4.95;2.25;;;;;;;-0.10;51.45;99564.50;10436988;28;20240;-68
2023/12/02 12:05:21;;;;;;;4.13;2.30;;;;;;;-0.24;50.83;99572.53;10432087;28;20048;-68
2023/12/02 12:10:36;;;;;;;4.43;2.00;;;;;;;-0.04;50.75;99567.78;10420819;28;20501;-68
2023/12/02 12:15:39;;;;;;;5.90;2.40;;;;;;;-0.06;51.05;99573.81;10435080;28;20449;-67
2023/12/02 12:20:44;;;;;;;3.75;1.85;;;;;;;-0.14;50.87;99586.00;10434704;28;20049;-68
2023/12/02 12:25:46;;;;;;;4.55;1.90;;;;;;;0.04;51.20;99583.03;10436877;28;20567;-67
2023/12/02 12:30:48;;;;;;;4.43;2.08;;;;;;;-0.04;51.55;99593.47;10436168;28;20374;-67
2023/12/02 12:35:50;;;;;;;5.18;2.25;;;;;;;-0.11;50.42;99602.22;10433274;28;20045;-68
2023/12/02 12:40:55;;;;;;;2.60;1.85;;;;;;;-0.24;51.14;99613.63;10414052;28;20400;-67
2023/12/02 12:45:57;;;;;;;4.22;2.65;;;;;;;0.06;50.95;99614.69;10418876;28;20041;-68
2023/12/02 12:51:02;;;;;;;3.85;2.30;;;;;;;0.27;50.84;99621.91;10432258;28;20045;-68
2023/12/02 12:56:12;;;;;;;4.25;2.35;;;;;;;0.15;50.26;99629.91;10433756;28;20087;-69
2023/12/02 13:01:15;;;;;;;3.28;1.98;;;;;;;0.36;50.70;99635.41;10433439;28;20071;-68
2023/12/02 13:06:34;;;;;;;3.10;1.70;;;;;;;0.44;49.64;99636.06;10414336;28;20068;-67
2023/12/02 13:12:14;;;;;;;3.78;2.05;;;;;;;0.30;50.38;99648.41;10412235;28;20493;-67
2023/12/02 13:17:17;;;;;;;3.88;2.40;;;;;;;0.31;50.93;99654.41;10429271;28;20053;-67
2023/12/02 13:22:20;;;;;;;3.90;1.83;;;;;;;0.20;51.26;99666.66;10432082;28;20084;-67
2023/12/02 13:27:36;;;;;;;4.80;2.10;;;;;;;0.28;50.89;99680.19;10413527;28;20049;-67
2023/12/02 13:32:43;;;;;;;4.07;1.92;;;;;;;0.36;50.56;99686.03;10431308;28;20056;-67
2023/12/02 13:38:25;;;;;;;4.55;2.55;;;;;;;0.28;51.03;99696.47;10428427;28;20033;-67
2023/12/02 13:43:48;;;;;;;4.72;1.88;;;;;;;0.18;50.63;99707.00;10423064;28;20419;-67
2023/12/02 13:49:11;;;;;;;4.65;2.13;;;;;;;0.11;50.87;99710.56;10429397;28;20056;-67
2023/12/02 13:54:31;;;;;;;3.28;1.98;;;;;;;0.23;50.95;99723.16;10423491;28;20060;-67
2023/12/02 13:59:42;;;;;;;4.55;2.42;;;;;;;0.28;50.54;99718.78;10448987;28;20056;-68
2023/12/02 14:05:03;;;;;;;3.58;1.83;;;;;;;0.14;50.61;99721.63;10432242;28;20493;-67
2023/12/02 14:10:08;;;;;;;4.32;1.83;;;;;;;0.21;51.15;99730.06;10430580;28;20048;-67
2023/12/02 14:15:29;;;;;;;4.25;2.15;;;;;;;0.26;50.89;99736.78;10413840;28;20048;-67
2023/12/02 14:20:45;;;;;;;6.35;2.50;;;;;;;0.24;51.45;99743.69;10431676;28;20071;-66
2023/12/02 14:26:26;;;;;;;4.10;2.38;;;;;;;0.04;50.34;99755.25;10432001;28;20306;-67
2023/12/02 14:31:29;;;;;;;5.38;2.53;;;;;;;0.10;51.55;99756.00;10400017;28;20052;-66
2023/12/02 14:37:21;;;;;;;4.53;1.90;;;;;;;0.06;51.27;99768.94;10430970;28;20036;-67
2023/12/02 14:42:44;;;;;;;2.75;1.58;;;;;;;0.03;51.56;99772.44;10397546;28;20048;-66
2023/12/02 14:48:00;;;;;;;7.22;1.90;;;;;;;-0.10;51.29;99778.69;10430539;28;20099;-66
2023/12/02 14:53:09;;;;;;;3.10;1.90;;;;;;;-0.04;51.47;99785.41;10426268;28;20555;-67
2023/12/02 14:58:26;;;;;;;3.45;1.90;;;;;;;-0.12;51.49;99805.28;10444824;28;20382;-66
2023/12/02 15:03:29;;;;;;;4.80;2.05;;;;;;;-0.01;51.59;99806.78;10430550;28;20052;-67
2023/12/02 15:08:40;;;;;;;3.30;2.08;;;;;;;-0.04;51.52;99806.84;10429576;28;20051;-66
2023/12/02 15:13:43;;;;;;;4.60;2.33;;;;;;;-0.02;51.73;99817.94;10408307;28;20095;-67
2023/12/02 15:18:46;;;;;;;3.55;1.80;;;;;;;0.04;51.51;99828.09;10429918;28;20053;-66
2023/12/02 15:23:48;;;;;;;3.92;1.83;;;;;;;-0.14;51.51;99843.88;10411855;28;20120;-67
2023/12/02 15:28:53;;;;;;;4.78;2.47;;;;;;;-0.22;51.27;99847.44;10429692;28;20497;-66
2023/12/02 15:33:57;;;;;;;6.18;3.45;;;;;;;-0.20;51.97;99850.84;10429838;28;20056;-66
2023/12/02 15:39:00;;;;;;;7.80;2.88;;;;;;;-0.12;52.46;99861.81;10425618;28;20045;-67
2023/12/02 15:44:03;;;;;;;4.22;2.67;;;;;;;-0.09;52.26;99866.94;10425511;28;20033;-67
2023/12/02 15:49:06;;;;;;;4.65;2.58;;;;;;;-0.12;52.24;99884.97;10429781;28;20417;-67
2023/12/02 15:54:11;;;;;;;4.80;2.92;;;;;;;-0.28;52.17;99888.66;10429271;28;20147;-66
2023/12/02 15:59:13;;;;;;;6.13;2.83;;;;;;;-0.26;52.70;99892.06;10428206;28;20511;-67
2023/12/02 16:04:15;;;;;;;5.57;2.10;;;;;;;-0.27;52.50;99904.09;10429286;28;20053;-66
2023/12/02 16:09:20;;;;;;;6.05;2.88;;;;;;;-0.22;52.58;99907.41;10428476;28;20128;-67
2023/12/02 16:14:22;;;;;;;7.57;3.17;;;;;;;-0.13;52.73;99914.13;10426463;28;20098;-67
2023/12/02 16:19:25;;;;;;;6.82;2.90;;;;;;;-0.13;52.52;99921.84;10428086;28;20555;-67
2023/12/02 16:24:27;;;;;;;6.70;2.88;;;;;;;-0.14;53.08;99932.97;10432848;28;20060;-67
2023/12/02 16:29:29;;;;;;;5.95;2.50;;;;;;;-0.26;52.96;99946.88;10436493;28;20051;-67
2023/12/02 16:34:32;;;;;;;5.78;3.28;;;;;;;-0.36;53.08;99945.31;10412707;28;21223;-67
2023/12/02 16:39:34;;;;;;;5.43;2.70;;;;;;;-0.34;53.23;99954.72;10416460;28;20049;-66
2023/12/02 16:44:37;;;;;;;7.95;3.75;;;;;;;-0.35;53.11;99953.00;10435261;28;20145;-66
2023/12/02 16:49:39;;;;;;;14.43;4.70;;;;;;;-0.32;53.08;99955.53;10416711;28;20048;-66
2023/12/02 16:54:41;;;;;;;5.97;3.35;;;;;;;-0.54;52.81;99963.59;10434069;28;20111;-66
2023/12/02 16:59:48;;;;;;;7.47;2.63;;;;;;;-0.52;53.11;99979.81;10428544;28;20054;-66
2023/12/02 17:04:51;;;;;;;5.05;2.42;;;;;;;-0.45;53.11;99986.56;10433463;28;20044;-67
2023/12/02 17:09:53;;;;;;;4.88;2.67;;;;;;;-0.47;52.89;99994.28;10427556;28;20201;-67
2023/12/02 17:15:04;;;;;;;5.45;2.60;;;;;;;-0.71;53.05;100002.34;10433462;28;21031;-66
2023/12/02 17:20:13;;;;;;;6.20;2.83;;;;;;;-0.59;53.21;100004.75;10433529;28;20057;-66
2023/12/02 17:25:47;;;;;;;5.15;2.85;;;;;;;-0.73;53.28;100010.94;10413697;28;20068;-67
2023/12/02 17:30:49;;;;;;;6.82;3.15;;;;;;;-0.86;53.24;100017.94;10416702;28;20128;-67
2023/12/02 17:35:51;;;;;;;7.32;3.63;;;;;;;-0.92;53.40;100015.44;10416190;28;20041;-66
2023/12/02 17:40:53;;;;;;;8.73;4.03;;;;;;;-0.96;53.54;100024.03;10431397;28;20033;-66
2023/12/02 17:45:57;;;;;;;6.30;3.30;;;;;;;-0.94;53.97;100026.63;10432696;28;20057;-67
2023/12/02 17:50:59;;;;;;;7.03;3.45;;;;;;;-0.89;53.88;100035.09;10433275;28;20131;-66
2023/12/02 17:56:01;;;;;;;7.22;3.45;;;;;;;-0.83;54.12;100029.88;10431703;28;20055;-66
2023/12/02 18:01:03;;;;;;;9.93;3.70;;;;;;;-0.90;54.08;100038.53;10432767;28;20147;-67
2023/12/02 18:06:06;;;;;;;7.28;3.20;;;;;;;-0.86;54.24;100033.31;10432797;28;20156;-67
2023/12/02 18:11:08;;;;;;;6.00;2.97;;;;;;;-0.86;54.22;100038.47;10397528;28;20072;-67
2023/12/02 18:16:11;;;;;;;8.32;4.00;;;;;;;-0.88;54.06;100040.19;10432544;28;20570;-66
2023/12/02 18:21:13;;;;;;;9.85;3.60;;;;;;;-0.88;54.19;100042.78;10429525;28;20061;-67
2023/12/02 18:26:16;;;;;;;7.95;4.07;;;;;;;-0.93;54.19;100043.69;10432278;28;20051;-66
2023/12/02 18:31:18;;;;;;;6.50;3.17;;;;;;;-0.94;54.43;100045.41;10430981;28;20044;-67
2023/12/02 18:36:21;;;;;;;9.98;3.58;;;;;;;-0.97;54.57;100053.16;10444095;28;20045;-67
2023/12/02 18:41:23;;;;;;;7.80;3.75;;;;;;;-0.98;54.68;100060.88;10429439;28;20242;-67
2023/12/02 18:46:26;;;;;;;6.80;3.13;;;;;;;-1.02;54.70;100075.44;10429655;28;20044;-67
2023/12/02 18:51:33;;;;;;;7.18;2.72;;;;;;;-0.92;54.85;100073.66;10430494;28;20135;-67
2023/12/02 18:56:35;;;;;;;11.23;4.35;;;;;;;-0.97;54.80;100080.53;10431990;28;20784;-67
2023/12/02 19:01:37;;;;;;;9.73;3.90;;;;;;;-1.17;55.14;100075.63;10430167;28;20459;-67
2023/12/02 19:06:39;;;;;;;7.80;3.10;;;;;;;-1.33;55.43;100071.50;10430252;28;20546;-67
2023/12/02 19:11:41;;;;;;;6.35;3.22;;;;;;;-1.45;55.63;100080.16;10424700;28;20101;-67
2023/12/02 19:16:44;;;;;;;6.75;3.13;;;;;;;-1.41;55.83;100093.81;10412371;28;20045;-66
2023/12/02 19:21:46;;;;;;;5.80;3.35;;;;;;;-1.25;55.63;100092.81;10412164;28;20460;-67
2023/12/02 19:26:48;;;;;;;5.97;3.72;;;;;;;-1.20;55.21;100102.16;10425660;28;20459;-67
2023/12/02 19:31:50;;;;;;;7.32;3.00;;;;;;;-1.14;55.45;100101.25;10428784;28;20428;-67
2023/12/02 19:36:54;;;;;;;9.65;3.85;;;;;;;-1.07;55.50;100102.03;10429438;28;21144;-67
2023/12/02 19:41:56;;;;;;;8.77;3.35;;;;;;;-1.13;55.27;100108.09;10422692;28;20040;-68
2023/12/02 19:46:58;;;;;;;7.22;3.00;;;;;;;-1.03;55.71;100109.69;10422871;28;20151;-67
2023/12/02 19:52:02;;;;;;;7.53;3.47;;;;;;;-1.24;55.37;100115.03;10428777;28;20053;-68
2023/12/02 19:57:04;;;;;;;5.93;3.40;;;;;;;-1.29;55.90;100114.22;10428070;28;20123;-68
2023/12/02 20:02:07;;;;;;;8.15;3.55;;;;;;;-1.38;55.72;100111.75;10438855;28;20051;-68
2023/12/02 20:07:09;;;;;;;8.45;3.13;;;;;;;-1.57;56.18;100123.84;10437120;28;20048;-68
2023/12/02 20:12:11;;;;;;;6.03;3.17;;;;;;;-1.71;56.50;100127.38;10436084;28;20044;-68
2023/12/02 20:17:13;;;;;;;7.18;3.28;;;;;;;-1.81;56.57;100136.00;10432233;28;20065;-68
2023/12/02 20:22:15;;;;;;;5.35;2.70;;;;;;;-1.90;56.92;100148.91;10434561;28;20175;-68
2023/12/02 20:27:19;;;;;;;7.00;3.55;;;;;;;-2.07;56.70;100160.09;10424538;28;20092;-68
2023/12/02 20:32:21;;;;;;;6.57;3.08;;;;;;;-2.14;57.08;100166.09;10432668;28;21048;-68
2023/12/02 20:37:23;;;;;;;7.75;4.00;;;;;;;-2.31;57.02;100165.34;10433303;28;20493;-68
2023/12/02 20:42:25;;;;;;;7.22;3.30;;;;;;;-2.37;57.46;100175.59;10419600;28;20048;-68
2023/12/02 20:47:27;;;;;;;9.73;4.05;;;;;;;-2.31;57.61;100170.47;10429867;28;20060;-68
2023/12/02 20:52:29;;;;;;;6.25;3.17;;;;;;;-2.24;57.60;100182.38;10434934;28;20045;-68
2023/12/02 20:57:31;;;;;;;8.85;3.90;;;;;;;-2.34;57.53;100172.16;10435544;28;20049;-68
2023/12/02 21:02:33;;;;;;;8.18;4.43;;;;;;;-2.48;57.75;100172.22;10436010;28;20454;-68
2023/12/02 21:07:35;;;;;;;7.70;4.00;;;;;;;-2.48;57.87;100168.81;10418120;28;20386;-68
2023/12/02 21:12:37;;;;;;;8.65;3.63;;;;;;;-2.55;58.05;100170.53;10434510;28;20036;-68
2023/12/02 21:17:39;;;;;;;7.60;3.67;;;;;;;-2.58;58.17;100178.22;10435346;28;20053;-68
2023/12/02 21:22:42;;;;;;;9.30;3.47;;;;;;;-2.73;58.48;100173.13;10411525;28;20060;-68
2023/12/02 21:27:45;;;;;;;8.18;4.28;;;;;;;-2.74;58.48;100179.13;10435951;28;20595;-69
2023/12/02 21:32:54;;;;;;;9.05;3.92;;;;;;;-2.66;58.39;100187.66;10436138;28;20059;-67
2023/12/02 21:37:56;;;;;;;7.75;3.30;;;;;;;-2.75;57.78;100197.88;10415542;28;20048;-68
2023/12/02 21:43:04;;;;;;;7.03;3.78;;;;;;;-3.08;58.50;100213.31;10417165;28;21054;-68
2023/12/02 21:48:10;;;;;;;9.85;4.00;;;;;;;-3.21;58.39;100219.25;10444378;28;20131;-68
2023/12/02 21:53:13;;;;;;;10.20;4.15;;;;;;;-3.37;59.35;100220.09;10449621;28;20507;-68
2023/12/02 21:58:15;;;;;;;11.50;4.65;;;;;;;-3.37;59.22;100226.09;10433694;28;20424;-68
2023/12/02 22:03:28;;;;;;;11.95;4.57;;;;;;;-3.37;59.40;100232.91;10433096;28;20126;-67
2023/12/02 22:08:30;;;;;;;10.25;4.47;;;;;;;-3.29;59.48;100247.41;10433806;28;20049;-67
2023/12/02 22:13:32;;;;;;;10.95;4.47;;;;;;;-3.22;59.72;100245.72;10414136;28;20044;-67
2023/12/02 22:18:39;;;;;;;10.15;4.38;;;;;;;-3.18;59.58;100250.78;10432996;28;20099;-68
2023/12/02 22:23:41;;;;;;;12.45;5.10;;;;;;;-3.16;59.64;100251.66;10431664;28;20052;-67
2023/12/02 22:28:46;;;;;;;10.88;5.00;;;;;;;-3.19;59.43;100261.03;10432577;28;20033;-68
2023/12/02 22:33:48;;;;;;;9.68;4.68;;;;;;;-3.19;59.71;100273.81;10433003;28;20049;-68
2023/12/02 22:38:53;;;;;;;9.52;3.95;;;;;;;-3.20;59.67;100267.84;10431923;28;20146;-69
2023/12/02 22:43:57;;;;;;;10.25;3.80;;;;;;;-3.31;59.55;100268.69;10430774;28;20143;-67
2023/12/02 22:48:59;;;;;;;14.50;4.28;;;;;;;-3.30;59.82;100278.06;10414752;28;20048;-67
2023/12/02 22:54:03;;;;;;;9.95;4.70;;;;;;;-3.50;59.92;100282.28;10428249;28;20045;-68
2023/12/02 22:59:07;;;;;;;9.05;4.40;;;;;;;-3.44;60.23;100300.19;10432852;28;20060;-67
2023/12/02 23:04:09;;;;;;;8.90;4.25;;;;;;;-3.48;60.12;100303.59;10431259;28;20059;-67
2023/12/02 23:09:28;;;;;;;9.23;4.30;;;;;;;-3.45;60.68;100303.63;10431402;28;20417;-67
2023/12/02 23:14:36;;;;;;;9.57;4.45;;;;;;;-3.41;60.10;100315.56;10431615;28;20044;-67
2023/12/02 23:19:38;;;;;;;10.75;5.40;;;;;;;-3.48;59.97;100308.72;10431713;28;20045;-68
2023/12/02 23:24:41;;;;;;;12.55;5.13;;;;;;;-3.46;60.41;100309.56;10431009;28;20617;-68
2023/12/02 23:29:43;;;;;;;9.65;4.78;;;;;;;-3.40;60.22;100307.03;10431453;28;20098;-69
2023/12/02 23:34:51;;;;;;;7.72;3.95;;;;;;;-3.29;60.18;100310.47;10437886;28;20124;-68
2023/12/02 23:39:56;;;;;;;10.30;3.72;;;;;;;-3.20;60.01;100310.50;10441068;28;20138;-68